AirNav   TITAN Aviation Fuels
 
 371 users online  

10G Holmes County Airport
Millersburg, Ohio, USA

GOING TO MILLERSBURG?


FAA INFORMATION EFFECTIVE 09 SEPTEMBER 2021

Location

FAA Identifier: 10G
Lat/Long: 40-32-12.1245N 081-57-21.3882W
40-32.202075N 081-57.356470W
40.5367013,-81.9559412
(estimated)
Elevation: 1226.5 ft. / 373.8 m (surveyed)
Variation: 08W (2015)
From city: 2 miles SW of MILLERSBURG, OH
Time zone: UTC -4 (UTC -5 during Standard Time)
Zip code: 44654

Airport Operations

Airport use: Open to the public
Activation date: 03/1962
Control tower: no
ARTCC: INDIANAPOLIS CENTER
FSS: CLEVELAND FLIGHT SERVICE STATION
NOTAMs facility: CLE (NOTAM-D service available)
Attendance: MON-FRI 0800-1900, ALL SAT 1000-1800, ALL SUN 1230-1700
Wind indicator: lighted
Segmented circle: no
Lights: ACTVT MIRL RY 09/27, PAPI RY 27 AND REIL RYS 09 & 27 - 123.4.
Beacon: white-green (lighted land airport)
Operates sunset to sunrise.

Airport Communications

CTAF/UNICOM: 123.0
WX AWOS-3: 128.325 (330-674-6279)
WX AWOS-3 at I40 (14 nm S): 118.875 (740-295-7370)
  • APCH/DEP SVC PRVDD BY INDIANAPOLIS ARTCC ON FREQS 124.45/370.9 (ZANESVILLE RCAG).

Nearby radio navigation aids

VOR radial/distance  VOR name  Freq  Var
BSVr247/26.8BRIGGS VOR/DME112.4004W
MFDr128/35.1MANSFIELD VORTAC108.8003W
ZZVr001/35.9ZANESVILLE VOR/DME114.9506W
APEr057/37.0APPLETON VORTAC116.7006W

Airport Services

Fuel available: 100LL JET-A+
Parking: hangars and tiedowns
Airframe service: MAJOR
Powerplant service: MAJOR
Bottled oxygen: HIGH
Bulk oxygen: NONE

Runway Information

Runway 9/27

Dimensions: 4400 x 75 ft. / 1341 x 23 m
Surface: asphalt, in good condition
Weight bearing capacity: 
Single wheel: 14.0
Double wheel: 25.0
Runway edge lights: medium intensity
RUNWAY 9  RUNWAY 27
Latitude: 40-32.182148N40-32.222002N
Longitude: 081-57.830652W081-56.882287W
Elevation: 1226.5 ft.1183.2 ft.
Traffic pattern: leftleft
Runway heading: 095 magnetic, 087 true275 magnetic, 267 true
Markings: nonprecision, in good conditionnonprecision, in good condition
Visual slope indicator: 2-light PAPI on left (3.00 degrees glide path)
Runway end identifier lights: yesyes
Touchdown point: yes, no lightsyes, no lights
Obstructions: 80 ft. bldg, 1550 ft. from runway, 420 ft. right of centerline, 16:1 slope to clearnone

Airport Ownership and Management from official FAA records

Ownership: Publicly-owned
Owner: HOLMES CO ARPT AUTH
10 SOUTH CLAY ST
MILLERSBURG, OH 44654
Phone (330) 674-0674
Manager: LARRY CLARK
4501 TWP RD 307
MILLERSBURG, OH 44654
Phone 330-674-0674
AMGR CELL: 330-231-3715

Airport Operational Statistics

Aircraft based on the field: 13
Single engine airplanes: 12
Jet airplanes: 1
    
Aircraft operations: avg 59/day *
70% local general aviation
23% transient general aviation
5% military
2% air taxi
* for 12-month period ending 16 September 2019

Additional Remarks

DEER ON & INVOF ARPT.
FOR CD CTC INDIANAPOLIS ARTCC AT 317-247-2411.

Instrument Procedures

NOTE: All procedures below are presented as PDF files. If you need a reader for these files, you should download the free Adobe Reader.

NOT FOR NAVIGATION. Please procure official charts for flight.
FAA instrument procedures published for use from 09 September 2021 at 0901Z to 07 October 2021 at 0900Z.

 
IAPs - Instrument Approach Procedures
RNAV (GPS) RWY 09   download (198KB)
RNAV (GPS) RWY 27   download (206KB)
NOTE: Special Take-Off Minimums/Departure Procedures apply   download (234KB)

Other nearby airports with instrument procedures:

I40 - Richard Downing Airport (14 nm S)
KBJJ - Wayne County Airport (21 nm N)
KPHD - Harry Clever Field Airport (25 nm E)
3G4 - Ashland County Airport (26 nm NW)
4I3 - Knox County Airport (29 nm SW)
 
Loc | Ops | Rwys | IFR | FBO | Links
Com | Nav | Svcs | Stats | Notes
Area around 10G (Holmes County Airport)
 
Road maps at: MapQuest Bing Google
 
Aerial photo
WARNING: Photo may not be current or correct
Aerial photo of 10G (Holmes County Airport)
Do you have a better or more recent aerial photo of Holmes County Airport that you would like to share? If so, please send us your photo.

 
Sectional chart

 
Airport distance calculator
Flying to Holmes County Airport? Find the distance to fly.

From to 10G

Sunrise and sunset
Times for 21-Sep-2021
 Local
(UTC-4)
 Zulu
(UTC)
Morning civil twilight06:4810:48
Sunrise07:1511:15
Sunset19:2623:26
Evening civil twilight19:5423:54

Current date and time
Zulu (UTC)  21-Sep-2021 08:48:19
Local (UTC-4)  21-Sep-2021 04:48:19
 
METAR
KBJJ 
20nm N 
210756Z AUTO 15005KT 10SM -RA OVC095 20/18 A3013 RMK AO2 RAB37 SLP195 P0001 T02000183
KPHD 
25nm E 
210753Z AUTO 13003KT 10SM BKN100 22/19 A3014 RMK AO2 SLP198 T02170189
K4I3 
29nm SW 
210835Z AUTO 13005KT 10SM OVC060 19/18 A3013 RMK AO2
KMFD 
31nm NW 
210752Z AUTO 14008KT 10SM -RA BKN080 OVC100 21/17 A3011 RMK AO2 RAB48 SLP186 P0000 T02060172
KCAK 
32nm NE 
210751Z 16009KT 9SM -RA OVC090 22/19 A3014 RMK AO2 RAB06 SLP196 P0001 T02170189
KZZV 
35nm S 
210753Z AUTO 14006KT 10SM BKN090 OVC120 22/18 A3012 RMK AO2 SLP190 T02170183
KAKR 
37nm NE 
210754Z AUTO 16004KT 10SM -RA OVC095 23/18 A3013 RMK AO2 RAB40 SLP192 P0000 T02280183
KCDI 
38nm SE 
210835Z AUTO 00000KT 10SM OVC090 21/18 A3013 RMK AO2 T02080177
KVTA 
39nm SW 
210754Z AUTO 16005KT 10SM FEW060 BKN110 23/17 A3010 RMK AO2 SLP184 T02280172
TAF
KMFD 
31nm NW 
210526Z 2106/2206 17010KT P6SM BKN100 FM211300 17010G20KT P6SM VCSH BKN025 FM211600 18010G20KT P6SM VCSH BKN035 FM220000 16008KT P6SM BKN060 FM220500 17010KT P6SM OVC025
KCAK 
32nm NE 
210526Z 2106/2206 16008KT P6SM OVC100 TEMPO 2107/2111 6SM -SHRA OVC035 FM211500 17010G20KT P6SM BKN020 FM211700 18010G20KT P6SM VCSH BKN035
KZZV 
35nm S 
210520Z 2106/2206 19007KT P6SM BKN250 FM210700 16005KT P6SM OVC090 FM211000 16005KT P6SM VCSH OVC060 TEMPO 2113/2117 P6SM -SHRA OVC030 FM211700 16008KT P6SM -SHRA OVC035 FM212100 15008KT P6SM VCSH OVC040 FM220500 15007KT P6SM VCSH OVC030
NOTAMs
Click for the latest NOTAMs
NOTAMs are issued by the DoD/FAA and will open in a separate window not controlled by AirNav.

 

 
 

FBO, Fuel Providers, and Aircraft Ground Support

  
 Business Name 
 
 Contact 
 
 Services / Description 
 
Fuel Prices
 
Comments
  
Professionals Aviation Company Inc. 330-674-0674
no information available

If you are affiliated with Professionals Aviation Company Inc. and would like to show here your services, contact info, web link, logo, and more, click here
100LL Jet A
FS $5.50 $4.50 
 Updated 01-Sep-2021
 
   5 read write
FS=Full service
Update Fuel Prices
 

Would you like to see your business listed on this page?

 If your business provides an interesting product or service to pilots, flight crews, aircraft, or users of the Holmes County Airport, you should consider listing it here.  To start the listing process, click on the button below
 
Add a business
 

Other Pages about Holmes County Airport

Update a link
 
Copyright © AirNav, LLC. All rights reserved. Privacy Policy  Contact